RJSKRJCC

Guest
Details From RJSK - AKITA
To RJCC - NEW CHITOSE
Flight Number -
Tags generated
Created
Modified
Stats Distance 201 nm / 372 km
Max Altitude 19,900 ft / 6,066 m
Waypoints 3
Social Downloads 0
Likes 0
Share VATSIM

Download

Looking for another format? Having issues loading an existing format? Contact us
Advertisement - Login to hide

Notes

Basic altitude profile: - Ascent Rate: 2500ft/min - Ascent Speed: 250kts - Cruise Altitude: 35000ft - Cruise Speed: 420kts - Descent Rate: 1500ft/min - Descent Speed: 250kts Options: - Use NATs: yes - Use PACOTS: yes - Use low airways: yes - Use high airways: yes

Route

RJSK OHMAR RJCC

ID Type Via Altitude Latitude Longitude Leg Dist Tot Dist Heading (true) Name
O RJSK APT - 0 ft / 0 m 39.61564˚ 140.21867˚ - 0 nm - AKITA
OHMAR FIX - 19,900 ft / 6,066 m 41.31332˚ 140.98963˚ 107 nm 107 nm 19° / 19° -
O RJCC APT - 0 ft / 0 m 42.77521˚ 141.69228˚ 93 nm 201 nm 19° / 20° NEW CHITOSE

Altitude Profile

Advertisement - Login to hide

Weather


0- 5 10 15 20 25 30 35+ Temperature / ° C

Clouds and Precipitation
Forecast for 2018-05-26 00:00 UTC. Updated 4 hours ago

Ground ~20,000 ft ~40,000 ft Winds

RJSK

Details ICAO RJSK (AXT)
Name AKITA
Region Japan
Timezone Asia/Tokyo (UTC+9.0)
Stats Elevation 313 ft / 95 m (AMSL)
Location 39.615645° 140.218665°
Runways 1
Magnetic Variation 8.688° W

METAR

RJSK 260300Z 29005KT 190V360 9999 FEW050 19/07 Q1011

Decode

TAF

TAF RJSK 252307Z 2600/2706 14003KT 9999 FEW010 BECMG 2600/2602 30010KT BECMG 2612/2615 14004KT BECMG 2700/2703 28008KT

Decode

Departure Runways

ID Width Length Bearing (true) Bearing (mag) Surface Threshold Offset Overrun Length
10 200 ft / 61 m 8,184 ft / 2,495 m 96.62° 105.31° Asphalt 0 ft / 0 m 200 ft / 61 m
28 200 ft / 61 m 8,184 ft / 2,495 m 276.64° 285.33° Asphalt 0 ft / 0 m 200 ft / 61 m

RJCC

Details ICAO RJCC (CTS)
Name NEW CHITOSE
Region Japan
Timezone Asia/Tokyo (UTC+9.0)
Stats Elevation 82 ft / 25 m (AMSL)
Location 42.775206° 141.692283°
Runways 2
Magnetic Variation 9.408° W

METAR

RJCC 260300Z 01011KT 340V040 9999 FEW020 SCT035 16/05 Q1010

Decode

TAF

TAF RJCC 252305Z 2600/2706 35013KT 9999 FEW025 BKN040= TAF RJFM 252314Z 2600/2706 35007KT 7000 -SHRA FEW010 SCT015 BKN020 TEMPO 2600/2606 3000 SHRA BR FEW003 BKN007 BKN010 BECMG 2601/2603 06015KT TEMPO 2606/2610 4000 -SHRA BR FEW004 BKN009 BKN012 BECMG 2615/2618 31005KT BECMG 2621/2700 05010KT

Decode

Destination Runways

ID Width Length Bearing (true) Bearing (mag) Surface Threshold Offset Overrun Length
01L 200 ft / 61 m 9,859 ft / 3,005 m 352.64° 2.05° Asphalt 0 ft / 0 m 185 ft / 56 m
01R 200 ft / 61 m 9,854 ft / 3,004 m 352.64° 2.05° Asphalt 0 ft / 0 m 185 ft / 56 m
19L 200 ft / 61 m 9,854 ft / 3,004 m 172.64° 182.05° Asphalt 0 ft / 0 m 185 ft / 56 m
19R 200 ft / 61 m 9,859 ft / 3,005 m 172.63° 182.04° Asphalt 0 ft / 0 m 185 ft / 56 m

Approach Navaids

Runway Type Ident Frequency Range Bearing (true) Bearing (mag) Slope Elevation
01L Localiser ICN 110.90 MHz 18 nm / 33 km 352.62° 2.03° - 82 ft / 25 m (AMSL)
01L Glidescope ICN 110.90 MHz 10 nm / 19 km 352.63° 2.04° 3.00° 81 ft / 25 m (AMSL)
01L DME ICN 110.90 MHz 18 nm / 33 km - - - 81 ft / 25 m (AMSL)
01R Localiser ICH 110.75 MHz 18 nm / 33 km 352.64° 2.05° - 82 ft / 25 m (AMSL)
01R Glidescope ICH 110.75 MHz 10 nm / 19 km 352.64° 2.05° 3.00° 83 ft / 25 m (AMSL)
01R DME ICH 110.75 MHz 18 nm / 33 km - - - 83 ft / 25 m (AMSL)
19R Localiser ICS 111.50 MHz 18 nm / 33 km 172.62° 182.03° - 82 ft / 25 m (AMSL)
19R Glidescope ICS 111.50 MHz 10 nm / 19 km 172.63° 182.04° 3.00° 0 ft / 0 m (AMSL)
19R DME ICS 111.50 MHz 18 nm / 33 km - - - 82 ft / 25 m (AMSL)

Popular Alternatives